createdAt,value
2018-08-23T00:01:10.904Z,99.90
2018-08-23T00:05:15.249Z,99.90
2018-08-23T00:09:19.520Z,99.90
2018-08-23T00:13:24.097Z,99.90
2018-08-23T00:17:30.798Z,99.90
2018-08-23T00:21:44.009Z,99.90
2018-08-23T00:25:48.200Z,99.90
2018-08-23T00:29:52.403Z,99.90
2018-08-23T00:33:56.640Z,99.90
2018-08-23T00:38:01.318Z,99.90
2018-08-23T00:42:07.957Z,99.90
2018-08-23T00:46:16.029Z,99.90
2018-08-23T00:51:02.355Z,99.90
2018-08-23T00:55:14.596Z,99.90
2018-08-23T00:59:18.858Z,99.90
2018-08-23T01:03:23.170Z,99.90
2018-08-23T01:07:30.819Z,99.90
2018-08-23T01:11:35.177Z,99.90
2018-08-23T01:15:39.569Z,99.90
2018-08-23T01:19:49.275Z,99.90
2018-08-23T01:23:53.492Z,99.90
2018-08-23T01:27:57.719Z,99.90
2018-08-23T01:32:12.351Z,99.90
2018-08-23T01:36:20.644Z,99.90
2018-08-23T01:40:24.872Z,99.90
2018-08-23T01:44:34.056Z,99.90
2018-08-23T01:48:38.487Z,99.90
2018-08-23T01:52:48.781Z,99.90
2018-08-23T01:56:52.992Z,99.90
2018-08-23T02:01:21.360Z,99.90
2018-08-23T02:05:25.689Z,99.90
2018-08-23T02:09:29.933Z,99.90
2018-08-23T02:13:34.214Z,99.90
2018-08-23T02:17:44.330Z,99.90
2018-08-23T02:21:48.624Z,99.90
2018-08-23T02:25:52.896Z,99.90
2018-08-23T02:29:57.108Z,99.90
2018-08-23T02:34:01.351Z,99.90
2018-08-23T02:38:05.692Z,99.90
2018-08-23T02:42:13.337Z,99.90
2018-08-23T02:46:17.666Z,99.90
2018-08-23T02:50:21.941Z,99.90
2018-08-23T02:54:26.297Z,99.90
2018-08-23T02:58:30.718Z,99.90
2018-08-23T03:02:34.964Z,99.90
2018-08-23T03:06:57.861Z,99.90
2018-08-23T03:11:02.113Z,99.90
2018-08-23T03:15:07.647Z,99.90
2018-08-23T03:19:11.889Z,99.90
2018-08-23T03:23:16.140Z,99.90
2018-08-23T03:27:20.435Z,99.90
2018-08-23T03:31:24.725Z,99.90
2018-08-23T03:35:28.924Z,99.90
2018-08-23T03:39:33.141Z,99.90
2018-08-23T03:43:37.328Z,99.90
2018-08-23T03:47:54.561Z,99.90
2018-08-23T03:51:59.185Z,99.90
2018-08-23T03:56:10.068Z,99.90
2018-08-23T04:00:14.277Z,99.90
2018-08-23T04:04:18.476Z,99.90
2018-08-23T04:08:22.756Z,99.90
2018-08-23T04:12:27.021Z,99.90
2018-08-23T04:16:32.178Z,99.90
2018-08-23T04:20:36.880Z,99.90
2018-08-23T04:24:45.974Z,99.90
2018-08-23T04:28:50.239Z,99.90
2018-08-23T04:32:54.974Z,99.90
2018-08-23T04:36:59.140Z,99.90
2018-08-23T04:41:06.162Z,99.90
2018-08-23T04:45:18.318Z,99.90
2018-08-23T04:49:22.868Z,99.90
2018-08-23T04:53:27.530Z,99.90
2018-08-23T04:57:31.798Z,99.90
2018-08-23T05:01:35.995Z,99.90
2018-08-23T05:05:40.453Z,99.90
2018-08-23T05:09:44.805Z,99.90
2018-08-23T05:13:50.211Z,99.90
2018-08-23T05:17:54.426Z,99.90
2018-08-23T05:21:58.815Z,99.90
2018-08-23T05:26:20.454Z,99.90
2018-08-23T05:30:25.180Z,99.90
2018-08-23T05:34:29.473Z,99.90
2018-08-23T05:38:33.803Z,99.90
2018-08-23T05:42:51.419Z,99.90
2018-08-23T05:46:57.539Z,99.90
2018-08-23T05:51:10.184Z,99.90
2018-08-23T05:55:14.492Z,99.90
2018-08-23T05:59:18.836Z,99.90
2018-08-23T06:03:23.075Z,99.90
2018-08-23T06:07:27.672Z,99.90
2018-08-23T06:11:32.165Z,99.90
2018-08-23T06:15:41.735Z,99.90
2018-08-23T06:19:45.980Z,99.90
2018-08-23T06:23:53.535Z,99.90
2018-08-23T06:27:57.850Z,99.90
2018-08-23T06:32:10.286Z,99.90
2018-08-23T06:36:14.519Z,99.90
2018-08-23T06:40:18.809Z,99.90
2018-08-23T06:44:23.581Z,99.90
2018-08-23T06:48:27.871Z,99.90
2018-08-23T06:52:36.654Z,99.90
2018-08-23T06:56:40.826Z,99.00
2018-08-23T07:00:45.220Z,97.30
2018-08-23T07:04:49.398Z,96.40
2018-08-23T07:08:54.066Z,93.90
2018-08-23T07:12:59.562Z,90.20
2018-08-23T07:17:31.637Z,91.10
2018-08-23T07:21:36.025Z,88.70
2018-08-23T07:25:45.191Z,85.40
2018-08-23T07:29:53.630Z,81.70
2018-08-23T07:33:58.037Z,79.70
2018-08-23T07:38:02.215Z,78.40
2018-08-23T07:42:06.637Z,75.00
2018-08-23T07:46:10.811Z,75.80
2018-08-23T07:50:15.357Z,72.70
2018-08-23T07:54:20.009Z,72.50
2018-08-23T07:58:24.336Z,70.40
2018-08-23T08:02:29.084Z,67.90
2018-08-23T08:06:33.492Z,67.70
2018-08-23T08:10:40.105Z,65.40
2018-08-23T08:14:44.568Z,68.30
2018-08-23T08:18:48.845Z,63.50
2018-08-23T08:22:53.187Z,62.20
2018-08-23T08:26:57.369Z,61.70
2018-08-23T08:31:02.515Z,64.00
2018-08-23T08:35:10.829Z,60.60
2018-08-23T08:39:15.101Z,55.30
2018-08-23T08:43:19.271Z,57.60
2018-08-23T08:47:23.728Z,56.20
2018-08-23T08:51:32.051Z,51.50
2018-08-23T08:55:36.427Z,52.10
2018-08-23T08:59:41.199Z,48.90
2018-08-23T09:03:45.868Z,50.30
2018-08-23T09:07:50.096Z,46.00
2018-08-23T09:11:54.433Z,50.80
2018-08-23T09:15:59.567Z,43.20
2018-08-23T09:20:07.077Z,44.20
2018-08-23T09:24:24.582Z,42.60
2018-08-23T09:28:28.841Z,43.40
2018-08-23T09:32:33.104Z,41.50
2018-08-23T09:36:37.283Z,37.50
2018-08-23T09:40:41.729Z,39.50
2018-08-23T09:44:58.938Z,37.80
2018-08-23T09:49:03.495Z,39.30
2018-08-23T09:53:41.674Z,40.20
2018-08-23T09:57:46.532Z,42.50
2018-08-23T10:01:56.044Z,42.00
2018-08-23T10:06:01.429Z,38.40
2018-08-23T10:10:11.163Z,36.90
2018-08-23T10:14:17.181Z,36.80
2018-08-23T10:18:27.718Z,38.00
2018-08-23T10:22:33.812Z,36.20
2018-08-23T10:26:38.611Z,35.80
2018-08-23T10:30:43.519Z,36.90
2018-08-23T10:34:47.845Z,33.90
2018-08-23T10:38:52.097Z,35.10
2018-08-23T10:42:56.297Z,33.40
2018-08-23T10:47:00.706Z,32.80
2018-08-23T10:51:04.942Z,33.20
2018-08-23T10:55:09.207Z,31.40
2018-08-23T10:59:13.521Z,33.10
2018-08-23T11:03:17.764Z,33.00
2018-08-23T11:07:26.138Z,34.30
2018-08-23T11:11:34.708Z,29.90
2018-08-23T11:15:38.883Z,28.20
2018-08-23T11:19:48.184Z,28.70
2018-08-23T11:23:52.386Z,29.90
2018-08-23T11:27:56.737Z,29.80
2018-08-23T11:32:00.932Z,27.50
2018-08-23T11:36:05.203Z,27.30
2018-08-23T11:40:09.402Z,26.20
2018-08-23T11:44:14.570Z,27.00
2018-08-23T11:48:37.219Z,26.90
2018-08-23T11:52:46.375Z,25.50
2018-08-23T11:56:51.612Z,26.10
2018-08-23T12:00:59.955Z,26.10
2018-08-23T12:05:04.185Z,26.80
2018-08-23T12:09:08.719Z,28.20
2018-08-23T12:13:13.195Z,28.80
2018-08-23T12:17:20.118Z,28.00
2018-08-23T12:21:25.978Z,26.90
2018-08-23T12:25:30.512Z,25.90
2018-08-23T12:29:34.811Z,25.70
2018-08-23T12:33:39.145Z,25.10
2018-08-23T12:37:49.052Z,27.80
2018-08-23T12:42:59.215Z,29.50
2018-08-23T12:47:04.034Z,28.70
2018-08-23T12:51:08.678Z,26.50
2018-08-23T12:55:13.181Z,24.80
2018-08-23T12:59:17.465Z,26.30
2018-08-23T13:03:21.996Z,23.70
2018-08-23T13:07:26.698Z,22.90
2018-08-23T13:11:31.072Z,21.50
2018-08-23T13:15:35.413Z,20.90
2018-08-23T13:19:40.227Z,20.60
2018-08-23T13:23:46.789Z,19.10
2018-08-23T13:27:51.452Z,20.40
2018-08-23T13:31:56.375Z,19.50
2018-08-23T13:36:00.620Z,17.60
2018-08-23T13:40:05.040Z,17.30
2018-08-23T13:44:09.264Z,19.30
2018-08-23T13:48:13.507Z,19.30
2018-08-23T13:52:17.837Z,17.90
2018-08-23T13:56:22.445Z,18.90
2018-08-23T14:00:31.869Z,18.80
2018-08-23T14:04:36.140Z,18.80
2018-08-23T14:08:40.404Z,17.20
2018-08-23T14:12:44.649Z,18.30
2018-08-23T14:16:48.865Z,16.70
2018-08-23T14:20:53.116Z,17.50
2018-08-23T14:24:57.455Z,17.90
2018-08-23T14:29:01.683Z,16.90
2018-08-23T14:33:06.014Z,16.40
2018-08-23T14:37:10.212Z,18.40
2018-08-23T14:41:14.434Z,19.30
2018-08-23T14:45:23.895Z,19.80
2018-08-23T14:49:33.103Z,19.20
2018-08-23T14:53:37.462Z,20.10
2018-08-23T14:57:47.954Z,22.50
2018-08-23T15:02:01.385Z,26.50
2018-08-23T15:06:14.795Z,28.40
2018-08-23T15:14:43.596Z,38.90
2018-08-23T15:18:53.581Z,42.10
2018-08-23T15:22:58.038Z,44.60
2018-08-23T15:27:02.501Z,45.20
2018-08-23T15:31:06.687Z,48.60
2018-08-23T15:35:10.885Z,51.10
2018-08-23T15:39:16.097Z,51.80
2018-08-23T15:43:20.460Z,51.20
2018-08-23T15:47:24.942Z,53.90
2018-08-23T15:51:29.371Z,54.10
2018-08-23T15:55:34.495Z,55.50
2018-08-23T15:59:38.709Z,56.10
2018-08-23T16:03:42.949Z,56.50
2018-08-23T16:07:47.224Z,57.50
2018-08-23T16:11:52.515Z,57.00
2018-08-23T16:16:02.215Z,57.10
2018-08-23T16:20:11.913Z,57.60
2018-08-23T16:24:16.273Z,54.90
2018-08-23T16:28:20.489Z,55.80
2018-08-23T16:32:29.768Z,60.40
2018-08-23T16:36:33.928Z,59.40
2018-08-23T16:40:38.343Z,62.30
2018-08-23T16:44:42.625Z,62.80
2018-08-23T16:48:46.946Z,63.60
2018-08-23T16:52:51.185Z,65.30
2018-08-23T16:56:55.445Z,65.10
2018-08-23T17:00:59.645Z,67.40
2018-08-23T17:05:03.953Z,66.40
2018-08-23T17:09:09.104Z,69.40
2018-08-23T17:13:17.500Z,67.80
2018-08-23T17:17:29.053Z,69.60
2018-08-23T17:21:33.294Z,70.50
2018-08-23T17:25:37.529Z,72.60
2018-08-23T17:29:41.905Z,73.80
2018-08-23T17:33:46.117Z,74.60
2018-08-23T17:37:50.393Z,75.20
2018-08-23T17:41:54.605Z,76.20
2018-08-23T17:45:58.797Z,77.10
2018-08-23T17:50:03.113Z,76.40
2018-08-23T17:54:07.327Z,78.10
2018-08-23T17:58:11.716Z,78.70
2018-08-23T18:02:15.917Z,80.70
2018-08-23T18:06:20.285Z,81.30
2018-08-23T18:10:25.435Z,82.20
2018-08-23T18:14:29.665Z,82.30
2018-08-23T18:18:33.880Z,82.20
2018-08-23T18:22:38.335Z,83.70
2018-08-23T18:26:42.616Z,84.20
2018-08-23T18:30:47.028Z,83.60
2018-08-23T18:34:51.390Z,85.90
2018-08-23T18:38:59.384Z,86.70
2018-08-23T18:43:04.456Z,87.70
2018-08-23T18:47:09.225Z,87.90
2018-08-23T18:51:13.659Z,87.90
2018-08-23T18:55:18.179Z,88.90
2018-08-23T18:59:22.832Z,89.00
2018-08-23T19:03:27.516Z,89.20
2018-08-23T19:07:37.012Z,89.50
2018-08-23T19:11:41.969Z,88.50
2018-08-23T19:15:51.371Z,88.90
2018-08-23T19:19:59.695Z,89.00
2018-08-23T19:24:04.947Z,89.00
2018-08-23T19:28:10.630Z,89.50
2018-08-23T19:32:15.455Z,89.70
2018-08-23T19:36:19.906Z,89.70
2018-08-23T19:40:29.919Z,89.50
2018-08-23T19:44:36.724Z,88.80
2018-08-23T19:48:41.715Z,89.20
2018-08-23T19:52:47.368Z,90.30
2018-08-23T19:56:52.276Z,89.80
2018-08-23T20:00:57.009Z,89.80
2018-08-23T20:05:01.818Z,90.20
2018-08-23T20:09:08.910Z,90.70
2018-08-23T20:13:13.668Z,90.20
2018-08-23T20:17:18.385Z,90.10
2018-08-23T20:21:23.181Z,90.40
2018-08-23T20:25:28.264Z,90.20
2018-08-23T20:29:33.329Z,90.30
2018-08-23T20:33:38.208Z,90.40
2018-08-23T20:37:42.893Z,90.50
2018-08-23T20:41:47.986Z,90.50
2018-08-23T20:45:52.820Z,90.50
2018-08-23T20:49:57.659Z,90.90
2018-08-23T20:54:02.697Z,91.40
2018-08-23T20:58:07.474Z,91.70
2018-08-23T21:02:11.921Z,91.50
2018-08-23T21:06:16.896Z,91.80
2018-08-23T21:10:21.605Z,92.00
2018-08-23T21:14:25.819Z,92.60
2018-08-23T21:18:29.992Z,93.00
2018-08-23T21:22:34.447Z,93.00
2018-08-23T21:26:38.749Z,93.50
2018-08-23T21:30:43.003Z,93.60
2018-08-23T21:34:47.296Z,93.80
2018-08-23T21:38:51.736Z,94.10
2018-08-23T21:42:55.979Z,93.90
2018-08-23T21:47:00.149Z,94.10
2018-08-23T21:51:04.727Z,94.10
2018-08-23T21:55:08.944Z,94.10
2018-08-23T21:59:13.313Z,94.60
2018-08-23T22:03:17.499Z,94.90
2018-08-23T22:07:22.029Z,95.10
2018-08-23T22:11:26.249Z,95.30
